Time;durP1;ratioP1;P1;durP2;ratioP2;P2;SDS_P1;SDS_P2;PMS_P1;PMS_P2;Temp;Humidity;BMP_temperature;BMP_pressure;BME280_temperature;BME280_humidity;BME280_pressure;Samples;Min_cycle;Max_cycle;Signal;HPM_P1;HPM_P2
2023/04/16 00:00:56;;;;;;;1.00;0.90;;;8.90;99.90;;;;;;1876336;75;21098;-83
2023/04/16 00:03:48;;;;;;;0.93;0.53;;;8.70;99.90;;;;;;1893989;75;21098;-83
2023/04/16 00:06:40;;;;;;;1.40;0.98;;;8.60;99.90;;;;;;1891770;75;21160;-82
2023/04/16 00:09:32;;;;;;;1.32;1.10;;;8.60;99.90;;;;;;1886844;75;21490;-82
2023/04/16 00:12:24;;;;;;;1.92;1.45;;;8.50;99.90;;;;;;1883448;75;21515;-82
2023/04/16 00:15:16;;;;;;;1.00;0.90;;;8.40;99.90;;;;;;1883337;75;21380;-84
2023/04/16 00:18:07;;;;;;;2.52;1.15;;;8.40;99.90;;;;;;1883776;75;21144;-83
2023/04/16 00:20:58;;;;;;;1.77;1.00;;;8.30;99.90;;;;;;1872526;76;21574;-83
2023/04/16 00:23:50;;;;;;;2.72;1.30;;;8.30;99.90;;;;;;1883571;75;21059;-83
2023/04/16 00:26:43;;;;;;;1.70;1.20;;;8.20;99.90;;;;;;1877303;75;21147;-83
2023/04/16 00:29:35;;;;;;;2.40;1.32;;;8.20;99.90;;;;;;1894047;75;21160;-83
2023/04/16 00:32:26;;;;;;;1.80;1.30;;;8.20;99.90;;;;;;1889478;75;21095;-83
2023/04/16 00:35:20;;;;;;;1.50;1.10;;;8.20;99.90;;;;;;1892307;75;21176;-82
2023/04/16 00:38:12;;;;;;;1.30;1.15;;;8.10;99.90;;;;;;1901721;75;21103;-83
2023/04/16 00:41:03;;;;;;;1.60;1.20;;;8.10;99.90;;;;;;1901941;75;21084;-83
2023/04/16 00:43:55;;;;;;;1.32;1.12;;;8.10;99.90;;;;;;1891191;75;21099;-83
2023/04/16 00:46:47;;;;;;;1.62;1.20;;;8.20;99.90;;;;;;1890126;75;21157;-83
2023/04/16 00:49:38;;;;;;;1.37;1.02;;;8.40;99.90;;;;;;1872093;75;21174;-83
2023/04/16 00:52:30;;;;;;;0.53;0.50;;;8.40;99.90;;;;;;1876462;75;21075;-83
2023/04/16 00:55:21;;;;;;;0.62;0.53;;;8.40;99.90;;;;;;1884224;75;21181;-83
2023/04/16 00:58:13;;;;;;;0.80;0.70;;;8.70;99.90;;;;;;1887359;75;21123;-83
2023/04/16 01:03:50;;;;;;;1.52;0.95;;;8.60;99.90;;;;;;1949649;72;22212;-84
2023/04/16 01:06:41;;;;;;;1.22;1.10;;;8.50;99.90;;;;;;1917070;75;21138;-85
2023/04/16 01:09:33;;;;;;;1.92;1.15;;;8.40;99.90;;;;;;1931667;73;21134;-83
2023/04/16 01:12:25;;;;;;;1.67;0.60;;;8.30;99.90;;;;;;1927916;73;21133;-84
2023/04/16 01:15:17;;;;;;;0.55;0.50;;;8.50;99.90;;;;;;1927975;73;21173;-83
2023/04/16 01:18:15;;;;;;;1.07;0.50;;;8.90;99.90;;;;;;1929114;73;21101;-83
2023/04/16 01:21:06;;;;;;;;;;;9.10;99.90;;;;;;1937583;73;21585;-83
2023/04/16 01:23:57;;;;;;;0.60;0.40;;;9.20;99.90;;;;;;1938745;73;20212;-83
2023/04/16 01:26:48;;;;;;;0.88;0.80;;;9.40;99.90;;;;;;1923764;73;21176;-83
2023/04/16 01:29:40;;;;;;;0.65;0.65;;;9.40;99.90;;;;;;1928329;73;21067;-83
2023/04/16 01:32:33;;;;;;;1.22;0.60;;;9.30;99.90;;;;;;1932080;73;21111;-83
2023/04/16 01:35:25;;;;;;;1.30;0.85;;;9.20;99.90;;;;;;1928159;74;21098;-83
2023/04/16 01:38:16;;;;;;;1.72;1.22;;;9.20;99.90;;;;;;1917107;75;21101;-84
2023/04/16 01:41:08;;;;;;;1.45;1.12;;;9.00;99.90;;;;;;1939742;73;21098;-84
2023/04/16 01:43:59;;;;;;;2.83;1.40;;;8.90;99.90;;;;;;1917160;75;21099;-83
2023/04/16 01:46:51;;;;;;;1.60;1.40;;;8.80;99.90;;;;;;1917225;75;21240;-84
2023/04/16 01:49:47;;;;;;;1.42;1.27;;;8.80;99.90;;;;;;1917166;75;21526;-83
2023/04/16 01:52:37;;;;;;;2.55;1.22;;;8.70;99.90;;;;;;1922807;73;21102;-84
2023/04/16 01:55:29;;;;;;;2.60;1.30;;;8.70;99.90;;;;;;1928328;73;21095;-83
2023/04/16 01:58:20;;;;;;;2.33;1.50;;;8.80;99.90;;;;;;1917335;75;21071;-84
2023/04/16 02:01:12;;;;;;;2.52;1.47;;;8.70;99.90;;;;;;1917242;75;21101;-84
2023/04/16 02:04:35;;;;;;;2.37;1.77;;;8.70;99.90;;;;;;1916829;74;21131;-84
2023/04/16 02:07:26;;;;;;;1.77;1.30;;;8.70;99.90;;;;;;1916897;75;21109;-84
2023/04/16 02:10:18;;;;;;;2.62;1.45;;;8.70;99.90;;;;;;1917168;75;21196;-83
2023/04/16 02:13:10;;;;;;;1.60;1.50;;;8.70;99.90;;;;;;1917106;75;21063;-84
2023/04/16 02:16:01;;;;;;;1.42;1.32;;;8.60;99.90;;;;;;1916680;75;21156;-83
2023/04/16 02:18:54;;;;;;;1.70;1.37;;;8.50;99.90;;;;;;1916513;75;21067;-84
2023/04/16 02:21:45;;;;;;;1.95;1.52;;;8.50;99.90;;;;;;1916560;75;21139;-83
2023/04/16 02:24:37;;;;;;;1.20;1.10;;;8.50;99.90;;;;;;1916689;75;21153;-83
2023/04/16 02:27:35;;;;;;;2.02;1.30;;;8.50;99.90;;;;;;1916623;75;21039;-84
2023/04/16 02:30:28;;;;;;;1.75;1.50;;;8.40;99.90;;;;;;1916443;75;21241;-84
2023/04/16 02:33:20;;;;;;;2.00;1.60;;;8.30;99.90;;;;;;1916457;75;21152;-83
2023/04/16 02:36:19;;;;;;;1.80;1.47;;;8.30;99.90;;;;;;1916477;75;21110;-85
2023/04/16 02:39:10;;;;;;;2.00;1.32;;;8.40;99.90;;;;;;1916224;75;21066;-83
2023/04/16 02:42:01;;;;;;;2.67;1.55;;;8.50;99.90;;;;;;1916367;75;21201;-84
2023/04/16 02:44:53;;;;;;;1.80;1.70;;;8.50;99.90;;;;;;1916278;75;21095;-83
2023/04/16 02:47:44;;;;;;;1.98;1.40;;;8.90;99.90;;;;;;1920978;73;21101;-84
2023/04/16 02:50:36;;;;;;;2.15;1.60;;;8.90;99.90;;;;;;1928176;73;21163;-84
2023/04/16 02:53:27;;;;;;;1.92;1.32;;;8.90;99.90;;;;;;1916645;75;21155;-84
2023/04/16 02:56:18;;;;;;;1.92;1.45;;;8.80;99.90;;;;;;1916771;75;21107;-85
2023/04/16 02:59:10;;;;;;;1.98;1.70;;;8.70;99.90;;;;;;1916642;75;21063;-83
2023/04/16 03:02:01;;;;;;;2.08;1.87;;;8.70;99.90;;;;;;1916444;75;21103;-84
2023/04/16 03:04:53;;;;;;;2.37;1.85;;;8.70;99.90;;;;;;1916579;75;21159;-86
2023/04/16 03:07:45;;;;;;;2.12;1.87;;;8.70;99.90;;;;;;1916433;75;21136;-86
2023/04/16 03:10:37;;;;;;;2.00;1.80;;;8.90;99.90;;;;;;1919643;73;21565;-84
2023/04/16 03:13:33;;;;;;;2.33;1.70;;;9.00;99.90;;;;;;1920360;74;21102;-83
2023/04/16 03:16:24;;;;;;;1.77;1.65;;;9.10;99.90;;;;;;1936978;73;21088;-83
2023/04/16 03:19:31;;;;;;;3.47;1.82;;;9.00;99.90;;;;;;1935439;73;21574;-84
2023/04/16 03:22:23;;;;;;;1.62;1.52;;;8.80;99.90;;;;;;1860358;77;21120;-85
2023/04/16 03:25:14;;;;;;;2.30;2.10;;;8.80;99.90;;;;;;1880716;76;21257;-83
2023/04/16 03:28:06;;;;;;;2.62;2.42;;;8.90;99.90;;;;;;1881317;76;21148;-83
2023/04/16 03:30:58;;;;;;;3.05;2.40;;;8.90;99.90;;;;;;1909935;75;21117;-83
2023/04/16 03:33:49;;;;;;;2.47;2.20;;;9.00;99.90;;;;;;1881185;76;21165;-84
2023/04/16 03:36:41;;;;;;;2.70;2.15;;;9.00;99.90;;;;;;1883073;76;21036;-84
2023/04/16 03:39:32;;;;;;;2.50;1.90;;;9.00;99.90;;;;;;1849871;77;21654;-84
2023/04/16 03:42:23;;;;;;;2.30;2.10;;;9.10;99.90;;;;;;1880562;76;21106;-83
2023/04/16 03:45:15;;;;;;;2.10;1.90;;;9.10;99.90;;;;;;1880557;76;21162;-85
2023/04/16 03:48:07;;;;;;;1.65;1.47;;;9.10;99.90;;;;;;1882731;76;21157;-84
2023/04/16 03:50:58;;;;;;;2.52;2.00;;;9.00;99.90;;;;;;1849807;77;21144;-84
2023/04/16 03:53:51;;;;;;;2.12;1.92;;;9.00;99.90;;;;;;1850350;77;21162;-84
2023/04/16 03:56:43;;;;;;;2.30;2.10;;;8.90;99.90;;;;;;1828455;78;21187;-84
2023/04/16 03:59:34;;;;;;;2.95;2.37;;;8.90;99.90;;;;;;1891925;75;21084;-84
2023/04/16 04:02:26;;;;;;;2.77;1.90;;;8.80;99.90;;;;;;1882919;76;21101;-84
2023/04/16 04:05:19;;;;;;;4.45;1.95;;;8.80;99.90;;;;;;1880754;76;21099;-84
2023/04/16 04:08:12;;;;;;;5.30;2.65;;;8.90;99.90;;;;;;1849111;77;21081;-84
2023/04/16 04:11:04;;;;;;;2.80;2.50;;;8.80;99.90;;;;;;1863315;76;21552;-84
2023/04/16 04:13:56;;;;;;;3.77;3.40;;;8.90;99.90;;;;;;1849734;77;21214;-84
2023/04/16 04:16:47;;;;;;;4.75;2.92;;;8.80;99.90;;;;;;1881414;76;21278;-84
2023/04/16 04:19:42;;;;;;;3.27;2.98;;;8.80;99.90;;;;;;1909478;75;21174;-83
2023/04/16 04:22:34;;;;;;;3.22;2.92;;;8.80;99.90;;;;;;1882705;76;21198;-83
2023/04/16 04:25:26;;;;;;;4.08;3.10;;;8.90;99.90;;;;;;1849135;77;21054;-83
2023/04/16 04:28:17;;;;;;;3.12;2.45;;;8.90;99.90;;;;;;1882693;76;21175;-83
2023/04/16 04:31:09;;;;;;;3.62;2.75;;;8.80;99.90;;;;;;1849041;77;21137;-83
2023/04/16 04:34:00;;;;;;;4.33;3.35;;;8.80;99.90;;;;;;1867035;76;21107;-83
2023/04/16 04:36:52;;;;;;;3.40;3.10;;;8.80;99.90;;;;;;1847841;77;21132;-83
2023/04/16 04:39:43;;;;;;;4.78;3.60;;;8.80;99.90;;;;;;1880884;76;21190;-84
2023/04/16 04:42:35;;;;;;;3.58;3.02;;;8.80;99.90;;;;;;1881183;76;21139;-83
2023/04/16 04:45:26;;;;;;;3.40;3.10;;;8.90;99.90;;;;;;1881222;76;21118;-84
2023/04/16 04:48:25;;;;;;;4.60;3.50;;;8.90;99.90;;;;;;1854593;76;21114;-83
2023/04/16 04:51:13;;;;;;;3.77;3.47;;;8.90;99.90;;;;;;1848053;77;21148;-83
2023/04/16 04:54:06;;;;;;;3.72;3.42;;;8.80;99.90;;;;;;1911213;75;21097;-83
2023/04/16 04:56:58;;;;;;;4.60;3.98;;;8.90;99.90;;;;;;1881439;76;21228;-83
2023/04/16 04:59:51;;;;;;;3.98;3.60;;;8.80;99.90;;;;;;1880908;76;21094;-84
2023/04/16 05:02:43;;;;;;;4.40;4.00;;;8.70;99.90;;;;;;1912711;75;21094;-84
2023/04/16 05:05:35;;;;;;;3.62;3.15;;;8.70;99.90;;;;;;1881699;76;21145;-83
2023/04/16 05:08:34;;;;;;;3.25;2.95;;;8.70;99.90;;;;;;1911417;75;21183;-84
2023/04/16 05:11:26;;;;;;;3.75;3.10;;;8.70;99.90;;;;;;1880882;76;21078;-84
2023/04/16 05:14:17;;;;;;;2.58;2.35;;;8.70;99.90;;;;;;1893290;75;21106;-84
2023/04/16 05:17:09;;;;;;;2.30;2.10;;;8.50;99.90;;;;;;1881815;76;21100;-84
2023/04/16 05:20:03;;;;;;;3.08;1.80;;;8.40;99.90;;;;;;1847831;77;21128;-85
2023/04/16 05:23:07;;;;;;;1.90;1.70;;;8.40;99.90;;;;;;1904368;74;21199;-84
2023/04/16 05:25:59;;;;;;;1.65;1.55;;;8.40;99.90;;;;;;1876345;75;21117;-84
2023/04/16 05:28:50;;;;;;;1.77;1.62;;;8.30;99.90;;;;;;1876969;76;21117;-83
2023/04/16 05:31:42;;;;;;;1.62;1.52;;;8.30;99.90;;;;;;1878165;76;21216;-83
2023/04/16 05:34:33;;;;;;;2.17;1.67;;;8.30;99.90;;;;;;1878588;76;21109;-84
2023/04/16 05:37:25;;;;;;;1.57;1.40;;;8.30;99.90;;;;;;1876968;76;21192;-84
2023/04/16 05:40:20;;;;;;;1.80;1.45;;;8.40;99.90;;;;;;1862263;76;21204;-84
2023/04/16 05:45:51;;;;;;;1.98;1.67;;;8.60;99.90;;;;;;1949415;72;22206;-85
2023/04/16 05:48:45;;;;;;;1.62;1.42;;;8.70;99.90;;;;;;1935916;73;21063;-84
2023/04/16 05:51:37;;;;;;;3.10;1.40;;;8.70;99.90;;;;;;1929786;73;21063;-83
2023/04/16 05:54:28;;;;;;;1.98;1.62;;;8.80;99.90;;;;;;1918756;73;21111;-84
2023/04/16 05:57:19;;;;;;;2.05;1.50;;;8.70;99.90;;;;;;1900779;75;21183;-84
2023/04/16 06:00:11;;;;;;;2.75;1.57;;;8.70;99.90;;;;;;1916545;75;21582;-83
2023/04/16 06:03:03;;;;;;;2.60;1.80;;;8.80;99.90;;;;;;1879670;76;21213;-84
2023/04/16 06:05:55;;;;;;;2.58;1.65;;;8.90;99.90;;;;;;1916827;75;21167;-84
2023/04/16 06:08:46;;;;;;;2.10;1.90;;;9.00;99.90;;;;;;1939501;73;21082;-84
2023/04/16 06:11:38;;;;;;;2.27;1.57;;;9.10;99.90;;;;;;1917305;74;21112;-84
2023/04/16 06:14:29;;;;;;;2.00;1.72;;;9.10;99.90;;;;;;1880409;76;21201;-84
2023/04/16 06:17:21;;;;;;;2.62;2.27;;;9.10;99.90;;;;;;1940014;73;21092;-84
2023/04/16 06:20:14;;;;;;;3.12;2.33;;;9.00;99.90;;;;;;1917107;75;21114;-84
2023/04/16 06:23:05;;;;;;;2.62;2.40;;;9.20;99.90;;;;;;1917608;73;21066;-84
2023/04/16 06:25:57;;;;;;;3.25;2.37;;;9.30;99.90;;;;;;1933512;73;21109;-84
2023/04/16 06:28:48;;;;;;;3.90;2.00;;;9.30;99.90;;;;;;1917489;75;21114;-84
2023/04/16 06:31:40;;;;;;;2.95;2.12;;;9.40;99.90;;;;;;1916714;75;21051;-84
2023/04/16 06:34:31;;;;;;;2.95;2.30;;;9.50;99.90;;;;;;1939469;73;21131;-84
2023/04/16 06:37:22;;;;;;;2.58;2.20;;;9.50;99.90;;;;;;1917264;75;21101;-84
2023/04/16 06:40:14;;;;;;;2.98;2.50;;;9.50;99.90;;;;;;1916899;75;21456;-85
2023/04/16 06:43:06;;;;;;;2.80;2.47;;;9.50;99.90;;;;;;1916917;75;21057;-84
2023/04/16 06:45:57;;;;;;;3.27;2.70;;;9.60;99.90;;;;;;1937659;73;21113;-85
2023/04/16 06:48:48;;;;;;;3.00;2.52;;;9.70;99.90;;;;;;1911833;75;21091;-84
2023/04/16 06:51:39;;;;;;;2.80;2.60;;;9.70;99.90;;;;;;1912500;75;21156;-83
2023/04/16 06:54:30;;;;;;;3.27;2.83;;;9.70;99.90;;;;;;1921883;74;21059;-83
2023/04/16 06:57:27;;;;;;;3.65;3.12;;;9.70;99.90;;;;;;1919746;73;21584;-84
2023/04/16 07:00:19;;;;;;;3.58;3.20;;;9.50;99.90;;;;;;1912374;75;21105;-83
2023/04/16 07:03:10;;;;;;;3.58;3.08;;;9.60;99.90;;;;;;1912917;75;21092;-85
2023/04/16 07:06:04;;;;;;;3.47;3.17;;;9.70;99.90;;;;;;1872174;76;21106;-84
2023/04/16 07:08:55;;;;;;;3.17;2.55;;;9.70;99.90;;;;;;1915367;74;21059;-85
2023/04/16 07:11:48;;;;;;;4.67;3.00;;;9.70;99.90;;;;;;1911517;74;21304;-84
2023/04/16 07:14:40;;;;;;;3.33;2.20;;;9.80;99.90;;;;;;1928649;73;21102;-84
2023/04/16 07:17:31;;;;;;;3.40;2.40;;;9.80;99.90;;;;;;1911903;75;21135;-84
2023/04/16 07:20:23;;;;;;;3.35;2.15;;;10.00;99.90;;;;;;1912448;74;21165;-84
2023/04/16 07:23:15;;;;;;;4.70;2.42;;;10.00;99.90;;;;;;1872669;76;21164;-85
2023/04/16 07:26:06;;;;;;;2.42;2.08;;;10.10;99.90;;;;;;1920849;74;21068;-84
2023/04/16 07:28:58;;;;;;;3.85;3.12;;;10.20;99.90;;;;;;1911609;75;21124;-84
2023/04/16 07:31:49;;;;;;;2.52;2.33;;;10.10;99.90;;;;;;1911375;75;21098;-85
2023/04/16 07:34:43;;;;;;;4.22;3.50;;;10.00;99.90;;;;;;1911187;75;21144;-85
2023/04/16 07:37:34;;;;;;;5.08;3.25;;;9.90;99.90;;;;;;1911661;75;21193;-84
2023/04/16 07:40:25;;;;;;;4.65;3.47;;;10.20;99.90;;;;;;1912901;75;21162;-84
2023/04/16 07:43:17;;;;;;;2.98;2.77;;;10.00;99.90;;;;;;1912030;75;21168;-84
2023/04/16 07:46:08;;;;;;;4.47;4.08;;;9.90;99.90;;;;;;1916516;74;21239;-86
2023/04/16 07:48:59;;;;;;;4.90;3.92;;;10.00;99.90;;;;;;1925129;73;21111;-86
2023/04/16 07:51:55;;;;;;;3.80;3.45;;;9.90;99.90;;;;;;1872675;76;21063;-86
2023/04/16 07:54:50;;;;;;;4.47;4.08;;;9.90;99.90;;;;;;1911715;74;21159;-86
2023/04/16 07:57:42;;;;;;;4.05;3.75;;;10.00;99.90;;;;;;1911543;75;21153;-84
2023/04/16 08:00:35;;;;;;;4.50;3.52;;;10.10;99.90;;;;;;1931634;74;21231;-84
2023/04/16 08:03:27;;;;;;;3.80;3.50;;;10.10;99.90;;;;;;1912387;75;21078;-84
2023/04/16 08:06:23;;;;;;;4.33;3.22;;;10.10;99.90;;;;;;1911673;75;21087;-84
2023/04/16 08:09:16;;;;;;;4.37;3.50;;;10.10;99.90;;;;;;1911979;75;21978;-84
2023/04/16 08:12:08;;;;;;;5.03;4.03;;;10.10;99.90;;;;;;1873401;76;21146;-85
2023/04/16 08:14:59;;;;;;;3.62;3.25;;;10.30;99.90;;;;;;1911114;74;21104;-85
2023/04/16 08:17:51;;;;;;;3.75;3.20;;;10.30;99.90;;;;;;1908623;75;21141;-84
2023/04/16 08:20:43;;;;;;;3.98;3.58;;;10.30;99.90;;;;;;1913072;75;21103;-84
2023/04/16 08:23:34;;;;;;;4.22;3.77;;;10.40;99.90;;;;;;1873296;76;21484;-84
2023/04/16 08:26:26;;;;;;;4.28;3.45;;;10.50;99.90;;;;;;1919052;74;21134;-84
2023/04/16 08:29:17;;;;;;;4.10;3.70;;;10.40;99.90;;;;;;1901755;75;21241;-84
2023/04/16 08:32:09;;;;;;;4.22;2.70;;;10.30;99.90;;;;;;1895793;75;21101;-85
2023/04/16 08:35:00;;;;;;;4.62;3.90;;;10.40;99.90;;;;;;1912778;75;21189;-84
2023/04/16 08:37:52;;;;;;;4.83;4.28;;;10.50;99.90;;;;;;1872633;76;21150;-84
2023/04/16 08:40:47;;;;;;;4.30;3.90;;;10.60;99.90;;;;;;1935684;74;21200;-84
2023/04/16 08:43:42;;;;;;;6.15;3.45;;;10.80;99.90;;;;;;1910770;74;21156;-84
2023/04/16 08:46:40;;;;;;;5.92;4.30;;;10.80;99.90;;;;;;1912294;75;21175;-83
2023/04/16 08:49:34;;;;;;;4.10;3.70;;;10.70;99.90;;;;;;1913053;75;21125;-84
2023/04/16 08:52:30;;;;;;;3.87;3.42;;;10.60;99.90;;;;;;1912991;75;21050;-84
2023/04/16 08:55:24;;;;;;;2.95;2.50;;;10.70;99.90;;;;;;1912922;75;21129;-84
2023/04/16 08:58:18;;;;;;;3.12;2.08;;;10.70;99.90;;;;;;1912694;75;21055;-84
2023/04/16 09:01:11;;;;;;;4.22;2.77;;;10.60;99.90;;;;;;1912949;75;21168;-84
2023/04/16 09:04:03;;;;;;;3.45;2.67;;;10.70;99.90;;;;;;1935836;74;21102;-84
2023/04/16 09:06:55;;;;;;;3.52;3.22;;;10.60;99.90;;;;;;1912725;75;21094;-84
2023/04/16 09:09:49;;;;;;;5.20;2.67;;;10.70;99.90;;;;;;1912962;75;21090;-84
2023/04/16 09:12:42;;;;;;;4.17;3.40;;;10.60;99.90;;;;;;1912723;75;21161;-84
2023/04/16 09:15:35;;;;;;;3.08;2.58;;;10.60;99.90;;;;;;1912755;75;21164;-84
2023/04/16 09:18:28;;;;;;;3.30;2.55;;;10.60;99.90;;;;;;1912437;75;21590;-84
2023/04/16 09:21:27;;;;;;;2.55;2.25;;;10.60;99.90;;;;;;1912674;75;21125;-84
2023/04/16 09:24:25;;;;;;;3.10;2.60;;;10.60;99.90;;;;;;1912880;74;21164;-84
2023/04/16 09:27:17;;;;;;;3.25;2.92;;;10.60;99.90;;;;;;1926199;74;21128;-84
2023/04/16 09:30:23;;;;;;;3.55;2.22;;;10.70;99.90;;;;;;1938809;74;21098;-84
2023/04/16 09:33:20;;;;;;;3.27;2.40;;;10.70;99.90;;;;;;1934668;74;21226;-84
2023/04/16 09:36:10;;;;;;;2.87;1.72;;;10.60;99.90;;;;;;1912793;75;21642;-85
2023/04/16 09:39:02;;;;;;;4.03;2.70;;;10.70;99.90;;;;;;1931158;74;21594;-84
2023/04/16 09:41:55;;;;;;;3.27;2.98;;;10.60;99.90;;;;;;1933762;74;21171;-85
2023/04/16 09:44:50;;;;;;;3.67;2.58;;;10.60;99.90;;;;;;1912922;75;21071;-85
2023/04/16 09:47:42;;;;;;;4.75;2.72;;;10.60;99.90;;;;;;1912780;75;21164;-85
2023/04/16 09:50:34;;;;;;;4.78;2.77;;;10.70;99.90;;;;;;1912935;75;21513;-84
2023/04/16 09:53:26;;;;;;;4.72;2.55;;;10.80;99.90;;;;;;1922887;74;21196;-85
2023/04/16 09:56:17;;;;;;;2.55;2.35;;;10.90;99.90;;;;;;1935761;74;21102;-84
2023/04/16 09:59:11;;;;;;;3.17;2.80;;;11.00;99.90;;;;;;1912725;75;21296;-84
2023/04/16 10:02:02;;;;;;;2.62;1.98;;;11.00;99.90;;;;;;1913185;75;21173;-85
2023/04/16 10:04:56;;;;;;;3.27;2.62;;;11.00;99.90;;;;;;1912901;75;21279;-84
2023/04/16 10:07:48;;;;;;;3.37;2.20;;;10.90;99.90;;;;;;1913067;75;21135;-84
2023/04/16 10:10:40;;;;;;;2.30;2.10;;;11.00;99.90;;;;;;1935835;74;21159;-84
2023/04/16 10:13:32;;;;;;;3.15;2.45;;;10.90;99.90;;;;;;1912741;75;21119;-85
2023/04/16 10:16:24;;;;;;;3.22;1.80;;;11.00;99.90;;;;;;1912882;75;21110;-86
2023/04/16 10:19:16;;;;;;;2.25;2.00;;;11.00;99.90;;;;;;1927771;74;21127;-86
2023/04/16 10:22:09;;;;;;;3.17;2.10;;;11.00;99.90;;;;;;1914029;74;21102;-85
2023/04/16 10:25:00;;;;;;;2.87;1.60;;;11.00;99.90;;;;;;1912678;75;21721;-86
2023/04/16 10:27:52;;;;;;;2.40;2.20;;;10.90;99.90;;;;;;1874901;76;21059;-85
2023/04/16 10:30:51;;;;;;;3.02;2.00;;;11.00;99.90;;;;;;1857761;76;21177;-85
2023/04/16 10:33:42;;;;;;;2.50;1.82;;;10.90;99.90;;;;;;1853565;76;21106;-84
2023/04/16 10:36:37;;;;;;;1.90;1.60;;;11.00;99.90;;;;;;1872852;76;21174;-85
2023/04/16 10:39:30;;;;;;;3.65;1.95;;;11.10;99.90;;;;;;1851906;76;21146;-84
2023/04/16 10:42:22;;;;;;;2.62;1.40;;;11.10;99.90;;;;;;1879562;75;21087;-84
2023/04/16 10:45:14;;;;;;;2.98;1.80;;;11.10;99.90;;;;;;1867315;76;21189;-84
2023/04/16 10:48:08;;;;;;;3.08;2.25;;;11.10;99.90;;;;;;1866977;76;21063;-85
2023/04/16 10:51:00;;;;;;;3.20;1.50;;;11.10;99.90;;;;;;1872288;75;21165;-84
2023/04/16 10:53:51;;;;;;;2.65;1.50;;;11.10;99.90;;;;;;1864542;77;21059;-84
2023/04/16 10:56:44;;;;;;;2.12;1.67;;;11.10;99.90;;;;;;1907685;75;21140;-85
2023/04/16 10:59:38;;;;;;;2.45;1.60;;;11.10;99.90;;;;;;1918915;74;21094;-85
2023/04/16 11:02:30;;;;;;;4.22;2.22;;;11.20;99.90;;;;;;1911782;73;21134;-85
2023/04/16 11:05:24;;;;;;;3.27;1.55;;;11.20;99.90;;;;;;1908863;74;21059;-85
2023/04/16 11:10:58;;;;;;;2.65;2.22;;;11.20;99.90;;;;;;1941039;72;22205;-85
2023/04/16 11:13:51;;;;;;;2.08;1.65;;;11.20;99.90;;;;;;1921581;74;21142;-85
2023/04/16 11:16:43;;;;;;;3.05;1.67;;;11.30;99.90;;;;;;1895097;75;21094;-85
2023/04/16 11:19:36;;;;;;;2.90;2.30;;;11.30;99.90;;;;;;1917286;75;21145;-84
2023/04/16 11:22:28;;;;;;;4.70;1.95;;;11.40;99.90;;;;;;1904037;75;21074;-84
2023/04/16 11:25:23;;;;;;;3.33;1.40;;;11.40;99.90;;;;;;1906501;75;21142;-84
2023/04/16 11:28:15;;;;;;;1.75;1.50;;;11.40;99.90;;;;;;1909441;75;21114;-85
2023/04/16 11:31:12;;;;;;;2.67;1.67;;;11.30;99.90;;;;;;1896906;75;21062;-85
2023/04/16 11:34:07;;;;;;;1.90;1.37;;;11.30;99.90;;;;;;1897753;75;21172;-85
2023/04/16 11:37:00;;;;;;;2.45;1.47;;;11.30;99.90;;;;;;1889954;75;21166;-85
2023/04/16 11:39:53;;;;;;;2.37;1.60;;;11.50;99.90;;;;;;1906988;75;21082;-84
2023/04/16 11:42:45;;;;;;;2.90;1.65;;;11.60;99.90;;;;;;1895214;75;21152;-85
2023/04/16 11:45:36;;;;;;;3.17;2.02;;;11.60;99.90;;;;;;1899167;75;21514;-85
2023/04/16 11:48:54;;;;;;;1.67;1.45;;;11.50;99.90;;;;;;1896680;75;21593;-85
2023/04/16 11:51:47;;;;;;;2.27;1.55;;;11.60;99.90;;;;;;1897489;75;21472;-85
2023/04/16 11:54:41;;;;;;;1.90;1.47;;;11.60;99.90;;;;;;1921547;74;21333;-84
2023/04/16 11:57:33;;;;;;;2.33;1.57;;;11.60;99.90;;;;;;1895348;75;21409;-84
2023/04/16 12:00:27;;;;;;;2.37;1.87;;;11.60;99.90;;;;;;1896749;75;21110;-84
2023/04/16 12:03:19;;;;;;;2.60;1.60;;;11.60;99.90;;;;;;1899703;75;21206;-83
2023/04/16 12:06:11;;;;;;;2.45;1.75;;;11.60;99.90;;;;;;1884444;76;21095;-83
2023/04/16 12:09:23;;;;;;;3.87;1.47;;;11.60;99.90;;;;;;1913595;75;21148;-84
2023/04/16 12:12:30;;;;;;;1.82;1.50;;;11.60;99.90;;;;;;1855991;76;21110;-85
2023/04/16 12:15:22;;;;;;;1.47;1.37;;;11.60;99.90;;;;;;1876416;76;21070;-85
2023/04/16 12:18:17;;;;;;;2.55;1.80;;;11.50;99.90;;;;;;1861711;76;21136;-85
2023/04/16 12:21:08;;;;;;;2.65;1.50;;;11.60;99.90;;;;;;1865356;76;21121;-85
2023/04/16 12:24:00;;;;;;;2.55;1.57;;;11.50;99.90;;;;;;1862267;76;21106;-86
2023/04/16 12:26:55;;;;;;;3.52;1.95;;;11.50;99.90;;;;;;1884186;76;21125;-85
2023/04/16 12:30:03;;;;;;;2.02;1.47;;;11.60;99.90;;;;;;1817697;78;21141;-86
2023/04/16 12:33:14;;;;;;;2.98;1.80;;;11.60;99.90;;;;;;1881144;76;21179;-85
2023/04/16 12:36:19;;;;;;;4.35;1.95;;;11.50;99.90;;;;;;1881104;76;21141;-84
2023/04/16 12:39:12;;;;;;;2.37;1.35;;;11.50;99.90;;;;;;1859512;77;21070;-84
2023/04/16 12:42:05;;;;;;;2.47;1.75;;;11.50;99.90;;;;;;1859281;77;21109;-84
2023/04/16 12:44:57;;;;;;;2.75;1.62;;;11.60;99.90;;;;;;1880222;76;21070;-84
2023/04/16 12:47:49;;;;;;;2.12;1.62;;;11.60;99.90;;;;;;1884547;76;21195;-84
2023/04/16 12:50:43;;;;;;;3.25;1.80;;;11.70;99.90;;;;;;1870896;76;21575;-86
2023/04/16 12:53:36;;;;;;;2.10;1.60;;;11.70;99.90;;;;;;1859366;77;21114;-86
2023/04/16 12:56:27;;;;;;;2.47;1.65;;;11.70;99.90;;;;;;1867223;76;21071;-85
2023/04/16 12:59:18;;;;;;;3.72;1.72;;;11.80;99.90;;;;;;1884081;76;21164;-86
2023/04/16 13:02:09;;;;;;;3.52;1.60;;;11.90;99.90;;;;;;1886442;76;21174;-84
2023/04/16 13:05:01;;;;;;;2.80;1.47;;;12.00;99.90;;;;;;1801520;79;21180;-85
2023/04/16 13:07:53;;;;;;;2.77;1.60;;;12.00;99.90;;;;;;1850439;77;21095;-85
2023/04/16 13:10:51;;;;;;;2.05;1.42;;;12.00;99.90;;;;;;1876895;75;21172;-85
2023/04/16 13:13:46;;;;;;;3.52;1.87;;;12.00;99.90;;;;;;1908376;75;21146;-85
2023/04/16 13:16:40;;;;;;;2.33;1.45;;;12.00;99.90;;;;;;1909918;74;21061;-85
2023/04/16 13:19:31;;;;;;;2.37;1.80;;;12.00;99.90;;;;;;1896887;75;21168;-85
2023/04/16 13:22:22;;;;;;;2.58;1.50;;;12.00;99.90;;;;;;1916909;75;21074;-85
2023/04/16 13:25:13;;;;;;;3.25;2.08;;;12.00;99.90;;;;;;1894487;75;21173;-85
2023/04/16 13:28:06;;;;;;;2.45;1.70;;;12.00;99.90;;;;;;1894240;75;21180;-85
2023/04/16 13:30:59;;;;;;;2.35;1.72;;;12.00;99.90;;;;;;1916346;75;21132;-85
2023/04/16 13:33:52;;;;;;;4.70;1.77;;;12.00;99.90;;;;;;1908543;75;21059;-85
2023/04/16 13:36:45;;;;;;;1.20;1.10;;;12.10;99.90;;;;;;1905738;75;21114;-84
2023/04/16 13:39:37;;;;;;;2.20;1.62;;;11.90;99.90;;;;;;1907547;74;21191;-85
2023/04/16 13:42:29;;;;;;;1.82;1.42;;;11.90;99.90;;;;;;1914453;74;21163;-85
2023/04/16 13:45:21;;;;;;;8.08;2.02;;;11.90;99.90;;;;;;1922815;74;21128;-84
2023/04/16 13:48:13;;;;;;;2.37;1.52;;;11.90;99.90;;;;;;1920350;74;21544;-84
2023/04/16 13:51:08;;;;;;;4.35;2.60;;;11.80;99.90;;;;;;1916177;75;21082;-86
2023/04/16 13:54:01;;;;;;;2.62;2.05;;;11.90;99.90;;;;;;1916262;74;21121;-84
2023/04/16 13:56:55;;;;;;;2.45;2.20;;;11.90;99.90;;;;;;1922586;74;21135;-85
2023/04/16 13:59:55;;;;;;;3.15;2.00;;;11.90;99.90;;;;;;1904116;75;21088;-84
2023/04/16 14:02:56;;;;;;;3.47;2.42;;;12.00;99.90;;;;;;1882743;76;21112;-84
2023/04/16 14:05:45;;;;;;;4.12;2.37;;;12.00;99.90;;;;;;1912228;75;21122;-85
2023/04/16 14:08:38;;;;;;;2.12;1.80;;;11.90;99.90;;;;;;1892018;75;21637;-84
2023/04/16 14:11:33;;;;;;;2.47;1.55;;;12.40;99.90;;;;;;1882028;76;21138;-85
2023/04/16 14:14:32;;;;;;;2.40;2.12;;;12.20;99.90;;;;;;1878910;75;21115;-84
2023/04/16 14:17:32;;;;;;;3.15;2.20;;;12.00;99.90;;;;;;1884796;75;21154;-84
2023/04/16 14:20:25;;;;;;;4.50;2.55;;;12.10;99.90;;;;;;1896382;75;21124;-85
2023/04/16 14:23:17;;;;;;;4.58;3.33;;;11.90;99.90;;;;;;1894901;75;21056;-86
2023/04/16 14:26:08;;;;;;;3.72;2.67;;;12.20;99.90;;;;;;1903147;75;21102;-85
2023/04/16 14:29:05;;;;;;;3.72;2.22;;;11.90;99.90;;;;;;1885419;75;21176;-86
2023/04/16 14:31:57;;;;;;;5.62;2.77;;;11.60;99.90;;;;;;1910095;75;21122;-85
2023/04/16 14:34:53;;;;;;;2.42;2.22;;;11.60;99.90;;;;;;1898343;75;21095;-85
2023/04/16 14:37:45;;;;;;;3.67;2.52;;;11.50;99.90;;;;;;1894625;75;21720;-85
2023/04/16 14:40:36;;;;;;;4.40;4.00;;;11.50;99.90;;;;;;1908918;75;21111;-85
2023/04/16 14:46:16;;;;;;;4.33;3.65;;;11.50;99.90;;;;;;1927279;72;22296;-86
2023/04/16 14:49:09;;;;;;;4.50;3.15;;;11.60;99.90;;;;;;1906282;75;21113;-87
2023/04/16 14:52:04;;;;;;;3.95;2.80;;;11.40;99.90;;;;;;1903340;75;21158;-84
2023/04/16 14:54:55;;;;;;;3.90;3.05;;;11.50;99.90;;;;;;1898170;75;21095;-84
2023/04/16 15:00:28;;;;;;;4.20;2.85;;;11.50;99.90;;;;;;1933266;72;22245;-83
2023/04/16 15:03:20;;;;;;;5.12;3.30;;;11.40;99.90;;;;;;1902067;75;21094;-85
2023/04/16 15:06:11;;;;;;;4.80;3.37;;;11.40;99.90;;;;;;1896252;75;21153;-85
2023/04/16 15:09:05;;;;;;;7.08;3.85;;;11.60;99.90;;;;;;1886615;75;21111;-84
2023/04/16 15:11:57;;;;;;;4.72;3.72;;;11.60;99.90;;;;;;1886840;75;21063;-85
2023/04/16 15:14:49;;;;;;;4.25;3.55;;;11.30;99.90;;;;;;1896990;75;21102;-84
2023/04/16 15:17:41;;;;;;;4.58;3.83;;;11.20;99.90;;;;;;1898920;75;21106;-85
2023/04/16 15:20:33;;;;;;;4.10;3.70;;;11.10;99.90;;;;;;1884881;75;21144;-84